sensor_id;sensor_type;location;lat;lon;timestamp;P1;durP1;ratioP1;P2;durP2;ratioP2
5890;SDS011;2971;52.420;7.080;2023-04-25T00:00:20;26.00;;;7.27;;
5890;SDS011;2971;52.420;7.080;2023-04-25T00:02:46;26.87;;;8.23;;
5890;SDS011;2971;52.420;7.080;2023-04-25T00:05:11;20.80;;;7.90;;
5890;SDS011;2971;52.420;7.080;2023-04-25T00:07:37;22.77;;;7.40;;
5890;SDS011;2971;52.420;7.080;2023-04-25T00:10:03;21.17;;;6.70;;
5890;SDS011;2971;52.420;7.080;2023-04-25T00:12:29;25.43;;;7.80;;
5890;SDS011;2971;52.420;7.080;2023-04-25T00:14:54;27.30;;;7.53;;
5890;SDS011;2971;52.420;7.080;2023-04-25T00:17:22;22.77;;;7.30;;
5890;SDS011;2971;52.420;7.080;2023-04-25T00:19:51;21.83;;;7.60;;
5890;SDS011;2971;52.420;7.080;2023-04-25T00:22:17;22.40;;;7.00;;
5890;SDS011;2971;52.420;7.080;2023-04-25T00:24:43;26.03;;;7.03;;
5890;SDS011;2971;52.420;7.080;2023-04-25T00:27:08;27.23;;;7.57;;
5890;SDS011;2971;52.420;7.080;2023-04-25T00:29:34;27.33;;;7.20;;
5890;SDS011;2971;52.420;7.080;2023-04-25T00:31:59;30.17;;;7.53;;
5890;SDS011;2971;52.420;7.080;2023-04-25T00:34:25;21.10;;;7.20;;
5890;SDS011;2971;52.420;7.080;2023-04-25T00:36:50;29.37;;;7.20;;
5890;SDS011;2971;52.420;7.080;2023-04-25T00:39:16;23.03;;;7.37;;
5890;SDS011;2971;52.420;7.080;2023-04-25T00:41:41;21.50;;;7.77;;
5890;SDS011;2971;52.420;7.080;2023-04-25T00:44:08;25.97;;;7.17;;
5890;SDS011;2971;52.420;7.080;2023-04-25T00:46:36;23.17;;;6.80;;
5890;SDS011;2971;52.420;7.080;2023-04-25T00:49:01;23.90;;;7.17;;
5890;SDS011;2971;52.420;7.080;2023-04-25T00:51:27;26.03;;;7.33;;
5890;SDS011;2971;52.420;7.080;2023-04-25T00:53:52;24.63;;;6.90;;
5890;SDS011;2971;52.420;7.080;2023-04-25T00:56:18;19.80;;;5.97;;
5890;SDS011;2971;52.420;7.080;2023-04-25T00:58:45;24.73;;;8.00;;
5890;SDS011;2971;52.420;7.080;2023-04-25T01:01:10;30.47;;;7.40;;
5890;SDS011;2971;52.420;7.080;2023-04-25T01:03:37;24.03;;;7.03;;
5890;SDS011;2971;52.420;7.080;2023-04-25T01:06:09;20.23;;;7.30;;
5890;SDS011;2971;52.420;7.080;2023-04-25T01:08:35;27.50;;;7.00;;
5890;SDS011;2971;52.420;7.080;2023-04-25T01:11:02;22.77;;;7.23;;
5890;SDS011;2971;52.420;7.080;2023-04-25T01:13:27;24.50;;;7.00;;
5890;SDS011;2971;52.420;7.080;2023-04-25T01:15:52;23.33;;;6.60;;
5890;SDS011;2971;52.420;7.080;2023-04-25T01:18:18;27.70;;;7.33;;
5890;SDS011;2971;52.420;7.080;2023-04-25T01:20:45;29.17;;;7.53;;
5890;SDS011;2971;52.420;7.080;2023-04-25T01:23:11;24.40;;;7.23;;
5890;SDS011;2971;52.420;7.080;2023-04-25T01:25:37;22.93;;;6.90;;
5890;SDS011;2971;52.420;7.080;2023-04-25T01:28:03;20.37;;;7.27;;
5890;SDS011;2971;52.420;7.080;2023-04-25T01:30:29;30.87;;;7.93;;
5890;SDS011;2971;52.420;7.080;2023-04-25T01:32:55;26.53;;;7.30;;
5890;SDS011;2971;52.420;7.080;2023-04-25T01:35:23;22.03;;;8.20;;
5890;SDS011;2971;52.420;7.080;2023-04-25T01:37:51;25.47;;;7.17;;
5890;SDS011;2971;52.420;7.080;2023-04-25T01:40:17;27.50;;;7.17;;
5890;SDS011;2971;52.420;7.080;2023-04-25T01:42:43;24.23;;;6.73;;
5890;SDS011;2971;52.420;7.080;2023-04-25T01:45:10;25.80;;;7.20;;
5890;SDS011;2971;52.420;7.080;2023-04-25T01:47:36;28.43;;;7.37;;
5890;SDS011;2971;52.420;7.080;2023-04-25T01:50:05;22.40;;;6.93;;
5890;SDS011;2971;52.420;7.080;2023-04-25T01:52:31;24.10;;;6.83;;
5890;SDS011;2971;52.420;7.080;2023-04-25T01:54:57;26.13;;;7.47;;
5890;SDS011;2971;52.420;7.080;2023-04-25T01:57:23;24.87;;;8.07;;
5890;SDS011;2971;52.420;7.080;2023-04-25T01:59:48;22.13;;;7.57;;
5890;SDS011;2971;52.420;7.080;2023-04-25T02:02:14;24.40;;;7.13;;
5890;SDS011;2971;52.420;7.080;2023-04-25T02:04:39;27.47;;;8.43;;
5890;SDS011;2971;52.420;7.080;2023-04-25T02:07:05;26.23;;;7.33;;
5890;SDS011;2971;52.420;7.080;2023-04-25T02:09:30;26.80;;;7.43;;
5890;SDS011;2971;52.420;7.080;2023-04-25T02:11:55;23.10;;;7.27;;
5890;SDS011;2971;52.420;7.080;2023-04-25T02:14:21;27.30;;;9.03;;
5890;SDS011;2971;52.420;7.080;2023-04-25T02:16:46;26.00;;;8.30;;
5890;SDS011;2971;52.420;7.080;2023-04-25T02:19:12;30.17;;;7.80;;
5890;SDS011;2971;52.420;7.080;2023-04-25T02:21:38;30.27;;;8.53;;
5890;SDS011;2971;52.420;7.080;2023-04-25T02:24:04;26.33;;;8.23;;
5890;SDS011;2971;52.420;7.080;2023-04-25T02:26:30;26.07;;;8.40;;
5890;SDS011;2971;52.420;7.080;2023-04-25T02:28:56;22.90;;;7.80;;
5890;SDS011;2971;52.420;7.080;2023-04-25T02:31:21;20.80;;;7.80;;
5890;SDS011;2971;52.420;7.080;2023-04-25T02:33:47;28.30;;;7.87;;
5890;SDS011;2971;52.420;7.080;2023-04-25T02:36:12;31.60;;;8.53;;
5890;SDS011;2971;52.420;7.080;2023-04-25T02:38:38;23.07;;;8.27;;
5890;SDS011;2971;52.420;7.080;2023-04-25T02:41:03;25.57;;;8.13;;
5890;SDS011;2971;52.420;7.080;2023-04-25T02:43:29;25.50;;;7.80;;
5890;SDS011;2971;52.420;7.080;2023-04-25T02:45:55;29.67;;;8.03;;
5890;SDS011;2971;52.420;7.080;2023-04-25T02:48:20;22.20;;;8.33;;
5890;SDS011;2971;52.420;7.080;2023-04-25T02:50:46;24.40;;;7.37;;
5890;SDS011;2971;52.420;7.080;2023-04-25T02:53:11;18.73;;;7.60;;
5890;SDS011;2971;52.420;7.080;2023-04-25T02:55:37;29.90;;;8.23;;
5890;SDS011;2971;52.420;7.080;2023-04-25T02:58:02;22.43;;;7.13;;
5890;SDS011;2971;52.420;7.080;2023-04-25T03:00:27;21.87;;;8.10;;
5890;SDS011;2971;52.420;7.080;2023-04-25T03:02:53;21.23;;;7.33;;
5890;SDS011;2971;52.420;7.080;2023-04-25T03:05:18;27.23;;;8.23;;
5890;SDS011;2971;52.420;7.080;2023-04-25T03:07:44;26.40;;;7.90;;
5890;SDS011;2971;52.420;7.080;2023-04-25T03:10:11;18.90;;;7.23;;
5890;SDS011;2971;52.420;7.080;2023-04-25T03:12:36;22.57;;;7.07;;
5890;SDS011;2971;52.420;7.080;2023-04-25T03:15:02;20.67;;;7.33;;
5890;SDS011;2971;52.420;7.080;2023-04-25T03:17:28;22.90;;;7.13;;
5890;SDS011;2971;52.420;7.080;2023-04-25T03:19:54;21.17;;;6.90;;
5890;SDS011;2971;52.420;7.080;2023-04-25T03:22:20;26.40;;;7.47;;
5890;SDS011;2971;52.420;7.080;2023-04-25T03:24:45;21.13;;;6.90;;
5890;SDS011;2971;52.420;7.080;2023-04-25T03:27:11;16.73;;;7.17;;
5890;SDS011;2971;52.420;7.080;2023-04-25T03:29:36;27.73;;;7.30;;
5890;SDS011;2971;52.420;7.080;2023-04-25T03:32:01;25.70;;;6.77;;
5890;SDS011;2971;52.420;7.080;2023-04-25T03:34:27;21.53;;;6.87;;
5890;SDS011;2971;52.420;7.080;2023-04-25T03:36:53;21.73;;;6.77;;
5890;SDS011;2971;52.420;7.080;2023-04-25T03:39:18;19.50;;;6.37;;
5890;SDS011;2971;52.420;7.080;2023-04-25T03:41:43;22.40;;;5.97;;
5890;SDS011;2971;52.420;7.080;2023-04-25T03:44:09;17.53;;;6.13;;
5890;SDS011;2971;52.420;7.080;2023-04-25T03:46:34;22.07;;;6.57;;
5890;SDS011;2971;52.420;7.080;2023-04-25T03:49:00;23.60;;;5.63;;
5890;SDS011;2971;52.420;7.080;2023-04-25T03:51:25;19.73;;;5.93;;
5890;SDS011;2971;52.420;7.080;2023-04-25T03:53:51;18.43;;;5.67;;
5890;SDS011;2971;52.420;7.080;2023-04-25T03:56:17;19.63;;;5.60;;
5890;SDS011;2971;52.420;7.080;2023-04-25T03:58:42;21.47;;;5.20;;
5890;SDS011;2971;52.420;7.080;2023-04-25T04:01:08;17.63;;;5.10;;
5890;SDS011;2971;52.420;7.080;2023-04-25T04:03:34;18.03;;;5.77;;
5890;SDS011;2971;52.420;7.080;2023-04-25T04:06:00;15.57;;;5.07;;
5890;SDS011;2971;52.420;7.080;2023-04-25T04:08:26;17.77;;;5.37;;
5890;SDS011;2971;52.420;7.080;2023-04-25T04:10:52;14.53;;;4.83;;
5890;SDS011;2971;52.420;7.080;2023-04-25T04:13:17;18.17;;;5.00;;
5890;SDS011;2971;52.420;7.080;2023-04-25T04:15:42;17.20;;;5.90;;
5890;SDS011;2971;52.420;7.080;2023-04-25T04:18:08;18.27;;;4.47;;
5890;SDS011;2971;52.420;7.080;2023-04-25T04:20:33;18.17;;;5.63;;
5890;SDS011;2971;52.420;7.080;2023-04-25T04:22:59;15.57;;;5.73;;
5890;SDS011;2971;52.420;7.080;2023-04-25T04:25:24;20.20;;;5.27;;
5890;SDS011;2971;52.420;7.080;2023-04-25T04:27:50;22.30;;;5.53;;
5890;SDS011;2971;52.420;7.080;2023-04-25T04:30:21;19.73;;;5.23;;
5890;SDS011;2971;52.420;7.080;2023-04-25T04:32:48;20.07;;;5.17;;
5890;SDS011;2971;52.420;7.080;2023-04-25T04:35:14;16.17;;;4.60;;
5890;SDS011;2971;52.420;7.080;2023-04-25T04:37:40;12.70;;;4.83;;
5890;SDS011;2971;52.420;7.080;2023-04-25T04:40:05;13.60;;;4.77;;
5890;SDS011;2971;52.420;7.080;2023-04-25T04:42:32;14.83;;;4.33;;
5890;SDS011;2971;52.420;7.080;2023-04-25T04:44:57;16.33;;;4.17;;
5890;SDS011;2971;52.420;7.080;2023-04-25T04:47:23;15.93;;;4.50;;
5890;SDS011;2971;52.420;7.080;2023-04-25T04:49:50;13.67;;;4.27;;
5890;SDS011;2971;52.420;7.080;2023-04-25T04:52:16;21.67;;;4.70;;
5890;SDS011;2971;52.420;7.080;2023-04-25T04:54:41;15.37;;;3.97;;
5890;SDS011;2971;52.420;7.080;2023-04-25T04:57:07;15.50;;;4.40;;
5890;SDS011;2971;52.420;7.080;2023-04-25T04:59:32;11.43;;;3.83;;
5890;SDS011;2971;52.420;7.080;2023-04-25T05:01:57;11.83;;;4.30;;
5890;SDS011;2971;52.420;7.080;2023-04-25T05:04:23;14.90;;;4.13;;
5890;SDS011;2971;52.420;7.080;2023-04-25T05:06:48;20.00;;;4.33;;
5890;SDS011;2971;52.420;7.080;2023-04-25T05:09:14;13.03;;;3.87;;
5890;SDS011;2971;52.420;7.080;2023-04-25T05:11:40;12.63;;;4.07;;
5890;SDS011;2971;52.420;7.080;2023-04-25T05:14:05;13.07;;;3.50;;
5890;SDS011;2971;52.420;7.080;2023-04-25T05:16:30;10.63;;;3.50;;
5890;SDS011;2971;52.420;7.080;2023-04-25T05:18:56;17.87;;;3.80;;
5890;SDS011;2971;52.420;7.080;2023-04-25T05:21:21;18.10;;;3.90;;
5890;SDS011;2971;52.420;7.080;2023-04-25T05:23:47;11.93;;;3.60;;
5890;SDS011;2971;52.420;7.080;2023-04-25T05:26:12;11.80;;;3.63;;
5890;SDS011;2971;52.420;7.080;2023-04-25T05:28:41;14.20;;;3.40;;
5890;SDS011;2971;52.420;7.080;2023-04-25T05:31:07;13.03;;;3.70;;
5890;SDS011;2971;52.420;7.080;2023-04-25T05:33:32;13.90;;;3.27;;
5890;SDS011;2971;52.420;7.080;2023-04-25T05:35:58;10.67;;;3.03;;
5890;SDS011;2971;52.420;7.080;2023-04-25T05:38:23;11.93;;;3.30;;
5890;SDS011;2971;52.420;7.080;2023-04-25T05:40:49;13.70;;;3.73;;
5890;SDS011;2971;52.420;7.080;2023-04-25T05:43:14;10.97;;;3.20;;
5890;SDS011;2971;52.420;7.080;2023-04-25T05:45:39;9.57;;;3.30;;
5890;SDS011;2971;52.420;7.080;2023-04-25T05:48:05;8.83;;;3.50;;
5890;SDS011;2971;52.420;7.080;2023-04-25T05:50:31;12.93;;;3.83;;
5890;SDS011;2971;52.420;7.080;2023-04-25T05:52:56;17.13;;;3.93;;
5890;SDS011;2971;52.420;7.080;2023-04-25T05:55:22;13.90;;;4.07;;
5890;SDS011;2971;52.420;7.080;2023-04-25T05:57:47;11.60;;;3.60;;
5890;SDS011;2971;52.420;7.080;2023-04-25T06:00:13;10.97;;;3.43;;
5890;SDS011;2971;52.420;7.080;2023-04-25T06:02:40;12.03;;;3.60;;
5890;SDS011;2971;52.420;7.080;2023-04-25T06:05:05;10.03;;;3.57;;
5890;SDS011;2971;52.420;7.080;2023-04-25T06:07:31;11.57;;;3.40;;
5890;SDS011;2971;52.420;7.080;2023-04-25T06:09:57;14.13;;;3.50;;
5890;SDS011;2971;52.420;7.080;2023-04-25T06:12:22;11.23;;;4.03;;
5890;SDS011;2971;52.420;7.080;2023-04-25T06:14:48;11.27;;;3.63;;
5890;SDS011;2971;52.420;7.080;2023-04-25T06:17:13;13.17;;;3.57;;
5890;SDS011;2971;52.420;7.080;2023-04-25T06:19:38;12.63;;;4.00;;
5890;SDS011;2971;52.420;7.080;2023-04-25T06:22:04;10.73;;;3.83;;
5890;SDS011;2971;52.420;7.080;2023-04-25T06:24:29;16.57;;;4.00;;
5890;SDS011;2971;52.420;7.080;2023-04-25T06:26:55;12.40;;;3.93;;
5890;SDS011;2971;52.420;7.080;2023-04-25T06:29:20;14.03;;;4.27;;
5890;SDS011;2971;52.420;7.080;2023-04-25T06:31:46;14.73;;;4.43;;
5890;SDS011;2971;52.420;7.080;2023-04-25T06:34:11;11.03;;;3.93;;
5890;SDS011;2971;52.420;7.080;2023-04-25T06:36:37;11.43;;;3.70;;
5890;SDS011;2971;52.420;7.080;2023-04-25T06:39:02;17.63;;;4.47;;
5890;SDS011;2971;52.420;7.080;2023-04-25T06:41:28;12.23;;;4.23;;
5890;SDS011;2971;52.420;7.080;2023-04-25T06:43:53;10.97;;;3.67;;
5890;SDS011;2971;52.420;7.080;2023-04-25T06:46:19;13.90;;;3.97;;
5890;SDS011;2971;52.420;7.080;2023-04-25T06:48:44;11.53;;;3.87;;
5890;SDS011;2971;52.420;7.080;2023-04-25T06:51:10;12.90;;;3.90;;
5890;SDS011;2971;52.420;7.080;2023-04-25T06:53:35;17.97;;;4.53;;
5890;SDS011;2971;52.420;7.080;2023-04-25T06:56:01;10.87;;;3.10;;
5890;SDS011;2971;52.420;7.080;2023-04-25T06:58:26;12.07;;;3.63;;
5890;SDS011;2971;52.420;7.080;2023-04-25T07:00:52;15.13;;;4.03;;
5890;SDS011;2971;52.420;7.080;2023-04-25T07:03:17;13.67;;;3.97;;
5890;SDS011;2971;52.420;7.080;2023-04-25T07:05:43;12.50;;;3.50;;
5890;SDS011;2971;52.420;7.080;2023-04-25T07:08:08;12.47;;;4.27;;
5890;SDS011;2971;52.420;7.080;2023-04-25T07:10:33;13.30;;;3.30;;
5890;SDS011;2971;52.420;7.080;2023-04-25T07:12:59;15.27;;;4.13;;
5890;SDS011;2971;52.420;7.080;2023-04-25T07:15:25;13.30;;;3.60;;
5890;SDS011;2971;52.420;7.080;2023-04-25T07:17:50;14.93;;;3.73;;
5890;SDS011;2971;52.420;7.080;2023-04-25T07:20:17;11.20;;;3.90;;
5890;SDS011;2971;52.420;7.080;2023-04-25T07:22:42;12.13;;;3.60;;
5890;SDS011;2971;52.420;7.080;2023-04-25T07:25:07;10.00;;;3.80;;
5890;SDS011;2971;52.420;7.080;2023-04-25T07:27:34;12.40;;;4.10;;
5890;SDS011;2971;52.420;7.080;2023-04-25T07:29:59;9.17;;;3.47;;
5890;SDS011;2971;52.420;7.080;2023-04-25T07:32:25;8.30;;;3.80;;
5890;SDS011;2971;52.420;7.080;2023-04-25T07:34:50;10.33;;;3.43;;
5890;SDS011;2971;52.420;7.080;2023-04-25T07:37:16;13.20;;;3.83;;
5890;SDS011;2971;52.420;7.080;2023-04-25T07:39:43;11.53;;;3.87;;
5890;SDS011;2971;52.420;7.080;2023-04-25T07:42:11;14.83;;;3.67;;
5890;SDS011;2971;52.420;7.080;2023-04-25T07:44:36;11.40;;;3.60;;
5890;SDS011;2971;52.420;7.080;2023-04-25T07:47:07;9.97;;;3.67;;
5890;SDS011;2971;52.420;7.080;2023-04-25T07:49:33;11.13;;;3.50;;
5890;SDS011;2971;52.420;7.080;2023-04-25T07:51:59;9.73;;;3.10;;
5890;SDS011;2971;52.420;7.080;2023-04-25T07:54:25;11.13;;;3.40;;
5890;SDS011;2971;52.420;7.080;2023-04-25T07:56:51;10.30;;;3.40;;
5890;SDS011;2971;52.420;7.080;2023-04-25T07:59:16;12.90;;;3.83;;
5890;SDS011;2971;52.420;7.080;2023-04-25T08:01:41;9.40;;;3.30;;
5890;SDS011;2971;52.420;7.080;2023-04-25T08:04:07;8.30;;;3.40;;
5890;SDS011;2971;52.420;7.080;2023-04-25T08:06:32;10.47;;;2.73;;
5890;SDS011;2971;52.420;7.080;2023-04-25T08:08:58;11.93;;;3.30;;
5890;SDS011;2971;52.420;7.080;2023-04-25T08:11:23;8.77;;;3.17;;
5890;SDS011;2971;52.420;7.080;2023-04-25T08:13:50;6.00;;;2.50;;
5890;SDS011;2971;52.420;7.080;2023-04-25T08:16:15;11.50;;;3.00;;
5890;SDS011;2971;52.420;7.080;2023-04-25T08:18:40;8.07;;;2.57;;
5890;SDS011;2971;52.420;7.080;2023-04-25T08:21:06;9.97;;;2.70;;
5890;SDS011;2971;52.420;7.080;2023-04-25T08:23:33;8.23;;;3.00;;
5890;SDS011;2971;52.420;7.080;2023-04-25T08:25:59;7.40;;;2.70;;
5890;SDS011;2971;52.420;7.080;2023-04-25T08:28:24;9.33;;;2.87;;
5890;SDS011;2971;52.420;7.080;2023-04-25T08:30:50;8.80;;;2.67;;
5890;SDS011;2971;52.420;7.080;2023-04-25T08:33:16;8.57;;;2.80;;
5890;SDS011;2971;52.420;7.080;2023-04-25T08:35:41;8.93;;;2.67;;
5890;SDS011;2971;52.420;7.080;2023-04-25T08:38:06;8.70;;;2.87;;
5890;SDS011;2971;52.420;7.080;2023-04-25T08:40:32;9.17;;;3.10;;
5890;SDS011;2971;52.420;7.080;2023-04-25T08:43:00;7.43;;;2.60;;
5890;SDS011;2971;52.420;7.080;2023-04-25T08:45:28;9.00;;;3.00;;
5890;SDS011;2971;52.420;7.080;2023-04-25T08:47:56;8.03;;;2.70;;
5890;SDS011;2971;52.420;7.080;2023-04-25T08:50:22;7.03;;;2.67;;
5890;SDS011;2971;52.420;7.080;2023-04-25T08:52:48;6.80;;;2.50;;
5890;SDS011;2971;52.420;7.080;2023-04-25T08:55:17;8.93;;;3.00;;
5890;SDS011;2971;52.420;7.080;2023-04-25T08:57:43;6.90;;;2.40;;
5890;SDS011;2971;52.420;7.080;2023-04-25T09:00:12;6.93;;;2.47;;
5890;SDS011;2971;52.420;7.080;2023-04-25T09:02:41;5.27;;;2.17;;
5890;SDS011;2971;52.420;7.080;2023-04-25T09:05:07;5.20;;;2.13;;
5890;SDS011;2971;52.420;7.080;2023-04-25T09:07:34;5.40;;;2.00;;
5890;SDS011;2971;52.420;7.080;2023-04-25T09:10:00;7.47;;;2.53;;
5890;SDS011;2971;52.420;7.080;2023-04-25T09:12:28;5.43;;;2.20;;
5890;SDS011;2971;52.420;7.080;2023-04-25T09:17:34;5.60;;;2.20;;
5890;SDS011;2971;52.420;7.080;2023-04-25T09:20:06;6.90;;;2.00;;
5890;SDS011;2971;52.420;7.080;2023-04-25T09:22:33;9.57;;;2.70;;
5890;SDS011;2971;52.420;7.080;2023-04-25T09:25:01;5.33;;;2.30;;
5890;SDS011;2971;52.420;7.080;2023-04-25T09:27:28;8.00;;;2.90;;
5890;SDS011;2971;52.420;7.080;2023-04-25T09:29:57;8.33;;;2.77;;
5890;SDS011;2971;52.420;7.080;2023-04-25T09:32:25;6.43;;;2.60;;
5890;SDS011;2971;52.420;7.080;2023-04-25T09:34:55;8.57;;;2.60;;
5890;SDS011;2971;52.420;7.080;2023-04-25T09:39:54;8.20;;;2.57;;
5890;SDS011;2971;52.420;7.080;2023-04-25T09:42:24;7.77;;;2.67;;
5890;SDS011;2971;52.420;7.080;2023-04-25T09:44:53;5.93;;;2.40;;
5890;SDS011;2971;52.420;7.080;2023-04-25T09:47:20;8.07;;;3.13;;
5890;SDS011;2971;52.420;7.080;2023-04-25T09:49:48;8.83;;;3.37;;
5890;SDS011;2971;52.420;7.080;2023-04-25T09:52:15;9.43;;;3.07;;
5890;SDS011;2971;52.420;7.080;2023-04-25T09:54:43;9.07;;;3.17;;
5890;SDS011;2971;52.420;7.080;2023-04-25T09:59:51;6.87;;;2.50;;
5890;SDS011;2971;52.420;7.080;2023-04-25T10:02:19;7.17;;;2.30;;
5890;SDS011;2971;52.420;7.080;2023-04-25T10:04:50;3.87;;;1.93;;
5890;SDS011;2971;52.420;7.080;2023-04-25T10:07:18;5.80;;;2.10;;
5890;SDS011;2971;52.420;7.080;2023-04-25T10:09:44;7.03;;;2.40;;
5890;SDS011;2971;52.420;7.080;2023-04-25T10:12:12;4.57;;;2.03;;
5890;SDS011;2971;52.420;7.080;2023-04-25T10:14:38;6.23;;;2.10;;
5890;SDS011;2971;52.420;7.080;2023-04-25T10:17:05;4.53;;;1.90;;
5890;SDS011;2971;52.420;7.080;2023-04-25T10:19:31;5.43;;;2.23;;
5890;SDS011;2971;52.420;7.080;2023-04-25T10:24:32;4.70;;;2.10;;
5890;SDS011;2971;52.420;7.080;2023-04-25T10:26:59;6.67;;;1.97;;
5890;SDS011;2971;52.420;7.080;2023-04-25T10:29:26;6.13;;;2.23;;
5890;SDS011;2971;52.420;7.080;2023-04-25T10:31:52;4.83;;;2.00;;
5890;SDS011;2971;52.420;7.080;2023-04-25T10:34:17;4.77;;;1.90;;
5890;SDS011;2971;52.420;7.080;2023-04-25T10:36:48;7.87;;;2.30;;
5890;SDS011;2971;52.420;7.080;2023-04-25T10:39:20;6.33;;;2.37;;
5890;SDS011;2971;52.420;7.080;2023-04-25T10:44:21;6.67;;;2.43;;
5890;SDS011;2971;52.420;7.080;2023-04-25T10:46:46;6.60;;;2.20;;
5890;SDS011;2971;52.420;7.080;2023-04-25T10:49:28;6.77;;;2.13;;
5890;SDS011;2971;52.420;7.080;2023-04-25T10:54:53;4.00;;;1.70;;
5890;SDS011;2971;52.420;7.080;2023-04-25T11:02:48;3.43;;;1.57;;
5890;SDS011;2971;52.420;7.080;2023-04-25T11:05:24;4.10;;;1.70;;
5890;SDS011;2971;52.420;7.080;2023-04-25T11:07:59;4.43;;;2.30;;
5890;SDS011;2971;52.420;7.080;2023-04-25T11:10:29;4.00;;;1.90;;
5890;SDS011;2971;52.420;7.080;2023-04-25T11:12:56;4.33;;;2.00;;
5890;SDS011;2971;52.420;7.080;2023-04-25T11:15:22;6.37;;;2.23;;
5890;SDS011;2971;52.420;7.080;2023-04-25T11:17:48;4.47;;;2.10;;
5890;SDS011;2971;52.420;7.080;2023-04-25T11:20:15;4.60;;;1.90;;
5890;SDS011;2971;52.420;7.080;2023-04-25T11:22:41;4.77;;;1.90;;
5890;SDS011;2971;52.420;7.080;2023-04-25T11:25:07;4.10;;;1.80;;
5890;SDS011;2971;52.420;7.080;2023-04-25T11:27:33;6.60;;;2.20;;
5890;SDS011;2971;52.420;7.080;2023-04-25T11:30:09;5.67;;;2.20;;
5890;SDS011;2971;52.420;7.080;2023-04-25T11:32:35;7.07;;;2.30;;
5890;SDS011;2971;52.420;7.080;2023-04-25T11:35:01;4.67;;;1.80;;
5890;SDS011;2971;52.420;7.080;2023-04-25T11:37:26;3.97;;;2.10;;
5890;SDS011;2971;52.420;7.080;2023-04-25T11:39:52;4.83;;;2.00;;
5890;SDS011;2971;52.420;7.080;2023-04-25T11:42:17;6.33;;;2.30;;
5890;SDS011;2971;52.420;7.080;2023-04-25T11:44:42;4.37;;;1.80;;
5890;SDS011;2971;52.420;7.080;2023-04-25T11:47:08;8.43;;;2.57;;
5890;SDS011;2971;52.420;7.080;2023-04-25T11:49:34;7.03;;;2.50;;
5890;SDS011;2971;52.420;7.080;2023-04-25T11:52:00;7.17;;;2.33;;
5890;SDS011;2971;52.420;7.080;2023-04-25T11:54:26;4.83;;;2.37;;
5890;SDS011;2971;52.420;7.080;2023-04-25T11:56:51;7.77;;;2.50;;
5890;SDS011;2971;52.420;7.080;2023-04-25T11:59:17;6.57;;;2.40;;
5890;SDS011;2971;52.420;7.080;2023-04-25T12:01:49;7.40;;;2.40;;
5890;SDS011;2971;52.420;7.080;2023-04-25T12:04:22;5.07;;;2.50;;
5890;SDS011;2971;52.420;7.080;2023-04-25T12:06:49;6.00;;;2.33;;
5890;SDS011;2971;52.420;7.080;2023-04-25T12:09:18;7.17;;;2.40;;
5890;SDS011;2971;52.420;7.080;2023-04-25T12:11:52;6.33;;;2.20;;
5890;SDS011;2971;52.420;7.080;2023-04-25T12:14:22;7.10;;;2.40;;
5890;SDS011;2971;52.420;7.080;2023-04-25T12:16:52;7.60;;;2.33;;
5890;SDS011;2971;52.420;7.080;2023-04-25T12:19:19;8.33;;;2.93;;
5890;SDS011;2971;52.420;7.080;2023-04-25T12:21:45;7.13;;;2.40;;
5890;SDS011;2971;52.420;7.080;2023-04-25T12:24:14;6.80;;;3.00;;
5890;SDS011;2971;52.420;7.080;2023-04-25T12:27:01;5.60;;;2.53;;
5890;SDS011;2971;52.420;7.080;2023-04-25T12:29:29;6.60;;;2.57;;
5890;SDS011;2971;52.420;7.080;2023-04-25T12:31:55;6.57;;;2.70;;
5890;SDS011;2971;52.420;7.080;2023-04-25T12:34:22;5.47;;;2.17;;
5890;SDS011;2971;52.420;7.080;2023-04-25T12:36:48;5.67;;;1.90;;
5890;SDS011;2971;52.420;7.080;2023-04-25T12:39:14;4.50;;;2.30;;
5890;SDS011;2971;52.420;7.080;2023-04-25T12:41:40;5.60;;;2.33;;
5890;SDS011;2971;52.420;7.080;2023-04-25T12:44:06;6.37;;;2.20;;
5890;SDS011;2971;52.420;7.080;2023-04-25T12:46:31;4.70;;;1.90;;
5890;SDS011;2971;52.420;7.080;2023-04-25T12:48:57;5.23;;;2.17;;
5890;SDS011;2971;52.420;7.080;2023-04-25T12:51:22;4.23;;;1.90;;
5890;SDS011;2971;52.420;7.080;2023-04-25T12:53:50;3.43;;;1.97;;
5890;SDS011;2971;52.420;7.080;2023-04-25T12:56:15;6.27;;;2.13;;
5890;SDS011;2971;52.420;7.080;2023-04-25T12:58:41;2.73;;;1.63;;
5890;SDS011;2971;52.420;7.080;2023-04-25T13:01:09;4.27;;;1.80;;
5890;SDS011;2971;52.420;7.080;2023-04-25T13:03:34;3.97;;;1.80;;
5890;SDS011;2971;52.420;7.080;2023-04-25T13:05:59;4.97;;;2.20;;
5890;SDS011;2971;52.420;7.080;2023-04-25T13:08:25;5.10;;;1.90;;
5890;SDS011;2971;52.420;7.080;2023-04-25T13:10:51;5.40;;;1.63;;
5890;SDS011;2971;52.420;7.080;2023-04-25T13:13:16;6.10;;;1.80;;
5890;SDS011;2971;52.420;7.080;2023-04-25T13:15:42;6.30;;;1.87;;
5890;SDS011;2971;52.420;7.080;2023-04-25T13:18:08;3.73;;;1.90;;
5890;SDS011;2971;52.420;7.080;2023-04-25T13:20:33;7.37;;;2.13;;
5890;SDS011;2971;52.420;7.080;2023-04-25T13:22:59;3.17;;;1.60;;
5890;SDS011;2971;52.420;7.080;2023-04-25T13:25:24;4.23;;;1.70;;
5890;SDS011;2971;52.420;7.080;2023-04-25T13:27:50;5.57;;;2.23;;
5890;SDS011;2971;52.420;7.080;2023-04-25T13:30:16;6.43;;;2.30;;
5890;SDS011;2971;52.420;7.080;2023-04-25T13:32:41;7.50;;;2.80;;
5890;SDS011;2971;52.420;7.080;2023-04-25T13:35:10;8.33;;;2.70;;
5890;SDS011;2971;52.420;7.080;2023-04-25T13:37:37;6.40;;;2.53;;
5890;SDS011;2971;52.420;7.080;2023-04-25T13:40:03;10.03;;;2.57;;
5890;SDS011;2971;52.420;7.080;2023-04-25T13:42:31;7.97;;;2.40;;
5890;SDS011;2971;52.420;7.080;2023-04-25T13:44:56;7.00;;;2.83;;
5890;SDS011;2971;52.420;7.080;2023-04-25T13:47:22;6.37;;;2.50;;
5890;SDS011;2971;52.420;7.080;2023-04-25T13:49:48;8.40;;;2.63;;
5890;SDS011;2971;52.420;7.080;2023-04-25T13:52:13;7.00;;;2.73;;
5890;SDS011;2971;52.420;7.080;2023-04-25T13:54:39;8.07;;;2.60;;
5890;SDS011;2971;52.420;7.080;2023-04-25T13:57:04;7.87;;;2.33;;
5890;SDS011;2971;52.420;7.080;2023-04-25T13:59:30;5.70;;;2.23;;
5890;SDS011;2971;52.420;7.080;2023-04-25T14:01:56;8.60;;;2.60;;
5890;SDS011;2971;52.420;7.080;2023-04-25T14:04:21;6.67;;;2.30;;
5890;SDS011;2971;52.420;7.080;2023-04-25T14:06:47;5.93;;;2.30;;
5890;SDS011;2971;52.420;7.080;2023-04-25T14:09:12;5.77;;;2.17;;
5890;SDS011;2971;52.420;7.080;2023-04-25T14:11:38;4.13;;;1.83;;
5890;SDS011;2971;52.420;7.080;2023-04-25T14:14:03;7.87;;;1.90;;
5890;SDS011;2971;52.420;7.080;2023-04-25T14:16:29;5.97;;;1.83;;
5890;SDS011;2971;52.420;7.080;2023-04-25T14:18:56;4.53;;;2.13;;
5890;SDS011;2971;52.420;7.080;2023-04-25T14:21:22;5.67;;;2.10;;
5890;SDS011;2971;52.420;7.080;2023-04-25T14:23:48;3.27;;;1.87;;
5890;SDS011;2971;52.420;7.080;2023-04-25T14:26:13;4.33;;;2.03;;
5890;SDS011;2971;52.420;7.080;2023-04-25T14:28:39;5.37;;;2.10;;
5890;SDS011;2971;52.420;7.080;2023-04-25T14:31:04;4.53;;;2.10;;
5890;SDS011;2971;52.420;7.080;2023-04-25T14:33:30;5.30;;;2.10;;
5890;SDS011;2971;52.420;7.080;2023-04-25T14:35:56;5.43;;;2.50;;
5890;SDS011;2971;52.420;7.080;2023-04-25T14:38:21;7.20;;;2.33;;
5890;SDS011;2971;52.420;7.080;2023-04-25T14:40:48;7.40;;;2.70;;
5890;SDS011;2971;52.420;7.080;2023-04-25T14:43:14;5.10;;;2.43;;
5890;SDS011;2971;52.420;7.080;2023-04-25T14:45:40;5.37;;;1.83;;
5890;SDS011;2971;52.420;7.080;2023-04-25T14:48:05;4.63;;;2.00;;
5890;SDS011;2971;52.420;7.080;2023-04-25T14:50:31;5.47;;;2.30;;
5890;SDS011;2971;52.420;7.080;2023-04-25T14:52:57;3.13;;;1.60;;
5890;SDS011;2971;52.420;7.080;2023-04-25T14:55:26;4.87;;;1.90;;
5890;SDS011;2971;52.420;7.080;2023-04-25T14:57:55;4.53;;;2.20;;
5890;SDS011;2971;52.420;7.080;2023-04-25T15:00:20;4.47;;;1.77;;
5890;SDS011;2971;52.420;7.080;2023-04-25T15:02:47;3.77;;;2.00;;
5890;SDS011;2971;52.420;7.080;2023-04-25T15:05:13;3.63;;;1.93;;
5890;SDS011;2971;52.420;7.080;2023-04-25T15:07:39;5.13;;;2.03;;
5890;SDS011;2971;52.420;7.080;2023-04-25T15:10:08;6.43;;;2.13;;
5890;SDS011;2971;52.420;7.080;2023-04-25T15:12:38;5.50;;;2.10;;
5890;SDS011;2971;52.420;7.080;2023-04-25T15:15:05;4.60;;;2.10;;
5890;SDS011;2971;52.420;7.080;2023-04-25T15:17:36;6.03;;;2.30;;
5890;SDS011;2971;52.420;7.080;2023-04-25T15:20:06;3.97;;;2.00;;
5890;SDS011;2971;52.420;7.080;2023-04-25T15:22:32;5.87;;;2.07;;